Grants Pass, Oregon
Current Conditions -  °F | °C
As of 5:56 AM on Sunday 21 Dec 2014 (Local Time) from KSXT Reporting Station
Light Rain Light Rain  
Wind Chill:   Ceiling: 1400
Heat Index:   Visibility: 0.75mi
Dew Point:   Wind: 10mph
Humidity: 100%   Direction: 230°SW
Pressure: 30.09"   Gusts: 18mph
Location:  42.44°N, 123.32°W
Report Text: KSXT 211356Z AUTO 23009G16KT 3/4SM -RA BR VV014 08/08 A3009 RMK AO2 SLP181 P0008 T00830083
Loading
Personal Weather Stations






























Interactive Weather Map New forecast layout! Learn more

10-Day Weather Forecast

Advertisements
Track Severe Weather on mobile